Time;durP1;ratioP1;P1;durP2;ratioP2;P2;SDS_P1;SDS_P2;PMS_P1;PMS_P2;Temp;Humidity;BMP_temperature;BMP_pressure;BME280_temperature;BME280_humidity;BME280_pressure;Samples;Min_cycle;Max_cycle;Signal;HPM_P1;HPM_P2
2023/01/17 00:01:07;;;;;;;4.95;1.42;;;3.70;99.90;;;;;;5048136;28;20503;-82
2023/01/17 00:09:51;;;;;;;3.80;0.70;;;3.70;99.90;;;;;;5028784;28;20040;-83
2023/01/17 00:11:48;;;;;;;12.95;0.68;;;3.70;99.90;;;;;;5048185;28;20041;-82
2023/01/17 00:14:13;;;;;;;3.25;0.40;;;3.70;99.90;;;;;;5046526;28;20388;-83
2023/01/17 00:16:39;;;;;;;4.25;0.30;;;3.60;99.90;;;;;;5050674;28;20068;-82
2023/01/17 01:33:37;;;;;;;2.17;0.50;;;3.20;99.90;;;;;;5006802;28;20351;-83
2023/01/17 01:36:06;;;;;;;4.65;0.40;;;3.20;99.90;;;;;;5005627;28;20523;-83
2023/01/17 01:38:32;;;;;;;5.35;0.38;;;3.20;99.90;;;;;;5004679;28;20096;-83
2023/01/17 01:40:57;;;;;;;6.38;0.40;;;3.20;99.90;;;;;;5008032;28;20030;-83
2023/01/17 01:43:49;;;;;;;5.97;0.40;;;3.20;99.90;;;;;;5000142;28;20030;-83
2023/01/17 01:46:40;;;;;;;5.85;0.50;;;3.10;99.90;;;;;;5006479;28;20060;-83
2023/01/17 01:49:23;;;;;;;5.53;0.40;;;3.10;99.90;;;;;;5002950;28;20497;-83
2023/01/17 01:51:53;;;;;;;6.70;0.50;;;3.10;99.90;;;;;;5007462;28;20065;-82
2023/01/17 01:54:29;;;;;;;4.35;0.52;;;3.10;99.90;;;;;;5005188;28;20117;-82
2023/01/17 01:56:57;;;;;;;10.43;0.68;;;3.10;99.90;;;;;;5009037;28;20046;-82
2023/01/17 01:59:24;;;;;;;5.57;0.32;;;3.10;99.90;;;;;;5006792;28;20044;-83
2023/01/17 02:01:53;;;;;;;8.27;0.88;;;3.10;99.90;;;;;;5008505;28;20045;-83
2023/01/17 02:04:20;;;;;;;3.80;0.50;;;3.10;99.90;;;;;;5006339;28;20053;-83
2023/01/17 02:06:56;;;;;;;8.15;0.70;;;3.10;99.90;;;;;;4989548;28;20492;-83
2023/01/17 02:09:23;;;;;;;6.45;0.60;;;3.10;99.90;;;;;;5003017;28;20034;-83
2023/01/17 02:11:49;;;;;;;4.05;0.50;;;3.10;99.90;;;;;;5008522;28;20045;-83
2023/01/17 02:14:20;;;;;;;4.82;0.50;;;3.00;99.90;;;;;;5002803;28;20038;-83
2023/01/17 02:17:17;;;;;;;3.08;0.45;;;3.00;99.90;;;;;;5005520;28;20049;-83
2023/01/17 02:19:55;;;;;;;2.92;0.40;;;3.00;99.90;;;;;;4969883;28;20057;-83
2023/01/17 02:23:06;;;;;;;1.23;0.20;;;3.00;99.90;;;;;;4980130;28;20413;-83
2023/01/17 02:25:55;;;;;;;12.35;0.68;;;3.00;99.90;;;;;;4968311;28;20129;-82
2023/01/17 02:28:44;;;;;;;7.63;0.80;;;3.00;99.90;;;;;;4964067;28;20489;-83
2023/01/17 02:31:17;;;;;;;7.18;0.70;;;3.00;99.90;;;;;;4957947;28;20039;-83
2023/01/17 02:33:52;;;;;;;5.22;0.60;;;3.00;99.90;;;;;;4966591;28;20066;-83
2023/01/17 02:36:24;;;;;;;6.80;1.33;;;3.10;99.90;;;;;;4965535;28;20050;-83
2023/01/17 02:39:28;;;;;;;5.65;0.63;;;3.10;99.90;;;;;;4969807;28;20050;-83
2023/01/17 02:41:59;;;;;;;6.57;0.55;;;3.10;99.90;;;;;;4966038;28;20046;-83
2023/01/17 02:44:25;;;;;;;6.82;0.60;;;3.00;99.90;;;;;;4966960;28;20087;-83
2023/01/17 02:46:56;;;;;;;5.80;0.40;;;3.00;99.90;;;;;;4961789;28;20050;-83
2023/01/17 02:49:27;;;;;;;10.70;1.45;;;3.00;99.90;;;;;;4979970;28;20053;-83
2023/01/17 02:52:14;;;;;;;8.25;0.82;;;3.00;99.90;;;;;;4981562;28;20041;-83
2023/01/17 02:55:01;;;;;;;3.70;0.75;;;3.00;99.90;;;;;;4986742;28;20053;-83
2023/01/17 02:57:42;;;;;;;8.93;1.25;;;3.10;99.90;;;;;;5008034;28;20034;-83
2023/01/17 03:00:17;;;;;;;6.60;0.52;;;3.10;99.90;;;;;;4981315;28;20044;-82
2023/01/17 03:02:45;;;;;;;4.60;0.50;;;3.10;99.90;;;;;;5011845;28;20066;-83
2023/01/17 03:05:14;;;;;;;7.88;1.30;;;3.20;99.90;;;;;;5011775;28;20041;-83
2023/01/17 03:07:41;;;;;;;5.60;0.60;;;3.20;99.90;;;;;;5002054;28;20076;-83
2023/01/17 03:10:10;;;;;;;7.43;0.70;;;3.20;99.90;;;;;;4990393;28;20042;-83
2023/01/17 03:12:38;;;;;;;4.72;1.00;;;3.20;99.90;;;;;;5003667;28;20048;-83
2023/01/17 03:15:09;;;;;;;7.55;0.73;;;3.20;99.90;;;;;;5016161;28;20485;-83
2023/01/17 03:17:36;;;;;;;7.18;0.68;;;3.30;99.90;;;;;;5001778;28;20096;-83
2023/01/17 03:20:01;;;;;;;5.65;1.50;;;3.30;99.90;;;;;;5005180;28;20076;-83
2023/01/17 03:22:27;;;;;;;6.35;0.70;;;3.30;99.90;;;;;;5052547;28;20068;-83
2023/01/17 03:24:53;;;;;;;4.13;0.65;;;3.20;99.90;;;;;;5031515;28;20059;-82
2023/01/17 03:27:18;;;;;;;4.93;0.40;;;3.20;99.90;;;;;;5051132;28;20041;-83
2023/01/17 03:29:44;;;;;;;5.57;0.55;;;3.10;99.90;;;;;;5051011;28;20095;-83
2023/01/17 03:32:10;;;;;;;5.05;1.05;;;3.10;99.90;;;;;;5039408;28;20158;-82
2023/01/17 03:34:35;;;;;;;5.00;0.57;;;3.00;99.90;;;;;;5028763;28;20414;-82
2023/01/17 03:37:01;;;;;;;4.45;0.55;;;3.00;99.90;;;;;;5032404;28;20829;-83
2023/01/17 03:39:26;;;;;;;2.70;0.40;;;3.00;99.90;;;;;;5032358;28;20033;-83
2023/01/17 03:41:52;;;;;;;7.13;0.77;;;2.90;99.90;;;;;;5049016;28;20067;-82
2023/01/17 03:44:18;;;;;;;7.90;0.60;;;3.00;99.90;;;;;;5029684;28;20037;-83
2023/01/17 03:46:43;;;;;;;6.00;0.60;;;2.90;99.90;;;;;;5050145;28;20041;-83
2023/01/17 03:49:10;;;;;;;5.38;0.50;;;3.00;99.90;;;;;;5048763;28;20052;-83
2023/01/17 03:51:35;;;;;;;8.07;0.60;;;3.00;99.90;;;;;;5048109;28;20127;-82
2023/01/17 03:54:01;;;;;;;7.82;0.82;;;3.00;99.90;;;;;;5044213;28;20124;-83
2023/01/17 03:56:26;;;;;;;4.30;0.50;;;3.00;99.90;;;;;;5045023;28;20029;-83
2023/01/17 03:58:52;;;;;;;3.17;0.40;;;3.00;99.90;;;;;;5051408;28;20514;-83
2023/01/17 04:01:18;;;;;;;4.13;0.35;;;3.00;99.90;;;;;;5030779;28;20029;-83
2023/01/17 04:03:43;;;;;;;6.40;0.70;;;3.00;99.90;;;;;;5041620;28;20094;-83
2023/01/17 04:06:09;;;;;;;8.18;0.70;;;3.00;99.90;;;;;;5051117;28;20111;-83
2023/01/17 04:08:35;;;;;;;5.00;0.82;;;2.90;99.90;;;;;;5050339;28;20263;-83
2023/01/17 04:11:00;;;;;;;4.82;0.60;;;2.90;99.90;;;;;;5046378;28;20045;-82
2023/01/17 04:13:26;;;;;;;10.98;2.65;;;2.90;99.90;;;;;;5047751;28;20025;-83
2023/01/17 04:15:52;;;;;;;7.28;0.60;;;2.90;99.90;;;;;;5047959;28;20108;-82
2023/01/17 04:18:19;;;;;;;4.68;0.60;;;2.90;99.90;;;;;;5048254;28;20037;-83
2023/01/17 04:20:45;;;;;;;5.90;0.40;;;2.80;99.90;;;;;;5044928;28;20048;-82
2023/01/17 04:23:11;;;;;;;5.38;0.52;;;2.70;99.90;;;;;;5038498;28;20059;-83
2023/01/17 04:25:36;;;;;;;5.78;0.85;;;2.70;99.90;;;;;;5050478;28;20048;-82
2023/01/17 04:28:03;;;;;;;4.60;0.75;;;2.60;99.90;;;;;;5044673;28;20040;-83
2023/01/17 04:30:29;;;;;;;5.55;0.40;;;2.60;99.90;;;;;;5043379;28;20032;-83
2023/01/17 04:32:56;;;;;;;5.85;0.65;;;2.50;99.90;;;;;;5049152;28;20147;-82
2023/01/17 04:35:22;;;;;;;6.93;0.80;;;2.50;99.90;;;;;;5048727;28;20112;-83
2023/01/17 04:37:48;;;;;;;3.97;0.73;;;2.50;99.90;;;;;;5031676;28;20052;-83
2023/01/17 04:40:14;;;;;;;5.90;0.68;;;2.50;99.90;;;;;;5048835;28;20029;-83
2023/01/17 04:42:40;;;;;;;5.53;0.68;;;2.40;99.90;;;;;;5046944;28;20040;-83
2023/01/17 04:45:06;;;;;;;8.57;1.08;;;2.40;99.90;;;;;;5049082;28;20073;-83
2023/01/17 04:47:33;;;;;;;5.75;0.70;;;2.40;99.90;;;;;;5050455;28;20041;-83
2023/01/17 04:49:58;;;;;;;4.90;0.68;;;2.40;99.90;;;;;;5048438;28;20048;-82
2023/01/17 04:52:24;;;;;;;4.43;0.55;;;2.40;99.90;;;;;;5047712;28;20109;-83
2023/01/17 04:54:50;;;;;;;9.20;1.35;;;2.40;99.90;;;;;;5043154;28;20140;-82
2023/01/17 04:57:17;;;;;;;6.03;0.60;;;2.40;99.90;;;;;;5031063;28;20480;-83
2023/01/17 04:59:44;;;;;;;3.22;0.52;;;2.40;99.90;;;;;;5041808;28;20076;-83
2023/01/17 05:02:10;;;;;;;4.97;1.17;;;2.40;99.90;;;;;;5046126;28;20033;-82
2023/01/17 05:04:35;;;;;;;3.17;0.43;;;2.40;99.90;;;;;;5040903;28;20051;-82
2023/01/17 05:07:01;;;;;;;7.97;1.45;;;2.40;99.90;;;;;;5042041;28;20037;-83
2023/01/17 05:09:27;;;;;;;7.88;0.77;;;2.40;99.90;;;;;;5041925;28;20185;-83
2023/01/17 05:11:54;;;;;;;5.13;0.63;;;2.40;99.90;;;;;;5050729;28;20041;-82
2023/01/17 05:14:20;;;;;;;3.95;0.55;;;2.40;99.90;;;;;;5037538;28;20968;-82
2023/01/17 05:16:46;;;;;;;2.55;0.47;;;2.40;99.90;;;;;;5047362;28;20071;-83
2023/01/17 05:19:12;;;;;;;7.65;0.77;;;2.30;99.90;;;;;;5043381;28;20115;-83
2023/01/17 05:21:37;;;;;;;12.60;0.90;;;2.30;99.90;;;;;;5055649;28;20491;-82
2023/01/17 05:24:03;;;;;;;5.20;0.47;;;2.20;99.90;;;;;;5045059;28;20053;-82
2023/01/17 05:26:29;;;;;;;8.07;0.40;;;2.20;99.90;;;;;;5064281;28;20047;-83
2023/01/17 05:28:55;;;;;;;7.53;0.80;;;2.10;99.90;;;;;;5028316;28;20521;-83
2023/01/17 05:31:20;;;;;;;7.35;0.70;;;2.10;99.90;;;;;;5044605;28;20446;-82
2023/01/17 05:33:46;;;;;;;3.45;0.55;;;2.10;99.90;;;;;;5026683;28;20442;-82
2023/01/17 05:36:11;;;;;;;5.13;0.55;;;2.00;99.90;;;;;;5028433;28;20034;-82
2023/01/17 05:38:37;;;;;;;7.88;0.93;;;2.00;99.90;;;;;;5047012;28;20041;-82
2023/01/17 05:41:03;;;;;;;3.17;0.70;;;2.00;99.90;;;;;;5044934;28;20044;-82
2023/01/17 05:43:30;;;;;;;8.07;0.90;;;2.00;99.90;;;;;;5042179;28;20042;-82
2023/01/17 05:45:55;;;;;;;5.45;0.80;;;1.90;99.90;;;;;;5045789;28;20045;-82
2023/01/17 05:48:21;;;;;;;5.93;0.77;;;1.90;99.90;;;;;;5044896;28;20033;-82
2023/01/17 05:50:47;;;;;;;4.32;0.75;;;1.90;99.90;;;;;;5029365;28;21826;-82
2023/01/17 05:53:14;;;;;;;6.88;0.60;;;1.90;99.90;;;;;;5031786;28;20037;-83
2023/01/17 05:55:41;;;;;;;7.75;0.88;;;1.90;99.90;;;;;;5044625;28;20049;-82
2023/01/17 05:58:11;;;;;;;4.80;0.70;;;1.90;99.90;;;;;;5046735;28;20045;-83
2023/01/17 06:00:37;;;;;;;2.40;0.52;;;1.90;99.90;;;;;;5029112;28;20068;-82
2023/01/17 06:03:03;;;;;;;5.05;0.70;;;1.90;99.90;;;;;;5046895;28;20067;-82
2023/01/17 06:05:30;;;;;;;3.22;0.85;;;1.90;99.90;;;;;;5047731;28;20075;-82
2023/01/17 06:07:55;;;;;;;3.65;0.40;;;1.80;99.90;;;;;;5037441;28;20052;-82
2023/01/17 06:10:22;;;;;;;3.58;0.70;;;1.80;99.90;;;;;;5044554;28;20041;-82
2023/01/17 06:12:48;;;;;;;8.60;0.85;;;1.80;99.90;;;;;;5047218;28;20040;-82
2023/01/17 06:15:15;;;;;;;3.88;0.70;;;1.70;99.90;;;;;;5048600;28;20045;-82
2023/01/17 06:17:41;;;;;;;5.68;0.40;;;1.70;99.90;;;;;;5047471;28;20411;-82
2023/01/17 06:20:08;;;;;;;3.67;0.50;;;1.60;99.90;;;;;;5047738;28;20037;-82
2023/01/17 06:22:34;;;;;;;5.25;0.88;;;1.60;99.90;;;;;;5043086;28;20407;-82
2023/01/17 06:25:00;;;;;;;5.38;0.63;;;1.60;99.90;;;;;;5046382;28;20040;-82
2023/01/17 06:27:26;;;;;;;3.88;0.40;;;1.50;99.90;;;;;;5049468;28;20119;-82
2023/01/17 06:29:51;;;;;;;4.00;1.48;;;1.50;99.90;;;;;;5044895;28;20630;-82
2023/01/17 06:32:17;;;;;;;5.35;0.55;;;1.50;99.90;;;;;;5040133;28;20045;-82
2023/01/17 06:34:43;;;;;;;5.45;0.52;;;1.40;99.90;;;;;;5068954;28;20040;-82
2023/01/17 06:37:10;;;;;;;5.78;0.50;;;1.50;99.90;;;;;;5052505;28;20491;-82
2023/01/17 06:39:35;;;;;;;5.25;0.40;;;1.50;99.90;;;;;;5043384;28;20053;-82
2023/01/17 06:42:01;;;;;;;6.43;2.22;;;1.40;99.90;;;;;;5048016;28;20036;-82
2023/01/17 06:44:27;;;;;;;2.80;0.32;;;1.40;99.90;;;;;;5050388;28;20475;-82
2023/01/17 06:46:52;;;;;;;3.63;0.50;;;1.40;99.90;;;;;;5047627;28;20051;-82
2023/01/17 06:49:18;;;;;;;4.57;0.50;;;1.30;99.90;;;;;;5047677;28;20040;-82
2023/01/17 06:51:44;;;;;;;4.47;0.60;;;1.30;99.90;;;;;;5047020;28;20033;-82
2023/01/17 06:54:10;;;;;;;3.60;0.40;;;1.20;99.90;;;;;;5046738;28;20059;-82
2023/01/17 06:56:36;;;;;;;2.03;0.40;;;1.20;99.90;;;;;;5031080;28;20059;-82
2023/01/17 06:59:01;;;;;;;6.80;0.50;;;1.20;99.90;;;;;;5048362;28;20033;-82
2023/01/17 07:01:27;;;;;;;3.78;0.38;;;1.20;99.90;;;;;;5047996;28;20033;-82
2023/01/17 07:03:53;;;;;;;3.05;0.40;;;1.40;99.90;;;;;;5051020;28;20049;-82
2023/01/17 07:06:19;;;;;;;3.53;0.40;;;1.10;99.90;;;;;;5050992;28;20045;-82
2023/01/17 07:08:46;;;;;;;6.88;0.55;;;1.10;99.90;;;;;;5048365;28;20561;-82
2023/01/17 07:11:12;;;;;;;4.18;0.77;;;1.10;99.90;;;;;;5033697;28;20045;-82
2023/01/17 07:13:38;;;;;;;1.67;0.38;;;1.10;99.90;;;;;;5045163;28;20047;-81
2023/01/17 07:16:06;;;;;;;4.13;0.50;;;1.10;99.90;;;;;;5047756;28;20138;-82
2023/01/17 07:18:32;;;;;;;4.82;0.40;;;1.00;99.90;;;;;;5025758;28;20091;-83
2023/01/17 07:20:58;;;;;;;7.85;1.20;;;1.00;99.90;;;;;;5048494;28;20052;-82
2023/01/17 07:23:25;;;;;;;4.15;0.60;;;1.00;99.90;;;;;;5051449;28;20080;-82
2023/01/17 07:25:55;;;;;;;4.85;1.15;;;1.00;99.90;;;;;;5051063;28;20099;-82
2023/01/17 07:28:22;;;;;;;4.60;0.35;;;1.00;99.90;;;;;;5042491;28;20041;-82
2023/01/17 07:30:48;;;;;;;2.42;0.50;;;0.90;99.90;;;;;;5033536;28;20033;-82
2023/01/17 07:33:14;;;;;;;5.82;0.60;;;0.90;99.90;;;;;;5050786;28;20395;-82
2023/01/17 07:35:40;;;;;;;5.45;0.55;;;1.00;99.90;;;;;;5048800;28;20036;-82
2023/01/17 07:38:10;;;;;;;3.97;0.47;;;0.90;99.90;;;;;;5044514;28;20041;-82
2023/01/17 07:40:36;;;;;;;6.90;0.75;;;0.90;99.90;;;;;;5030951;28;20136;-82
2023/01/17 07:43:12;;;;;;;1.90;0.70;;;0.90;99.90;;;;;;5048400;28;20702;-83
2023/01/17 07:45:55;;;;;;;6.47;0.73;;;0.90;99.90;;;;;;5041558;28;20139;-83
2023/01/17 07:48:23;;;;;;;3.90;0.57;;;0.90;99.90;;;;;;5045500;28;20120;-82
2023/01/17 07:50:56;;;;;;;1.63;0.43;;;0.90;99.90;;;;;;5063329;28;20837;-82
2023/01/17 07:53:26;;;;;;;3.33;0.60;;;0.90;99.90;;;;;;5044996;28;20048;-82
2023/01/17 07:55:52;;;;;;;3.83;0.52;;;0.90;99.90;;;;;;5047932;28;20047;-82
2023/01/17 07:58:19;;;;;;;4.82;0.75;;;0.90;99.90;;;;;;5041842;28;20043;-82
2023/01/17 08:00:45;;;;;;;6.05;0.60;;;0.90;99.90;;;;;;5043105;28;20095;-83
2023/01/17 08:03:13;;;;;;;4.53;0.85;;;1.00;99.90;;;;;;5047980;28;20044;-83
2023/01/17 08:05:40;;;;;;;3.47;0.40;;;0.90;99.90;;;;;;5048501;28;20044;-83
2023/01/17 08:08:06;;;;;;;8.13;0.82;;;1.00;99.90;;;;;;5045725;28;20040;-83
2023/01/17 08:10:31;;;;;;;4.13;0.45;;;1.00;99.90;;;;;;5026701;28;20033;-83
2023/01/17 08:12:57;;;;;;;4.38;1.33;;;1.00;99.90;;;;;;5046537;28;20036;-83
2023/01/17 08:15:25;;;;;;;3.92;0.50;;;1.00;99.90;;;;;;5048737;28;20044;-83
2023/01/17 08:17:56;;;;;;;2.60;0.60;;;1.00;99.90;;;;;;5047269;28;20036;-83
2023/01/17 08:20:22;;;;;;;2.10;0.52;;;1.10;99.90;;;;;;5044713;28;20050;-83
2023/01/17 08:22:50;;;;;;;4.53;0.40;;;1.00;99.90;;;;;;5029233;28;20132;-83
2023/01/17 08:25:16;;;;;;;3.28;0.40;;;1.10;99.90;;;;;;5046138;28;20037;-84
2023/01/17 08:27:42;;;;;;;2.78;0.40;;;1.10;99.90;;;;;;5027250;28;20047;-83
2023/01/17 08:30:08;;;;;;;2.20;0.35;;;1.10;99.90;;;;;;5030177;28;20037;-82
2023/01/17 08:32:34;;;;;;;1.85;0.43;;;1.10;99.90;;;;;;5065276;28;20048;-83
2023/01/17 08:34:59;;;;;;;2.95;0.40;;;1.10;99.90;;;;;;5051146;28;20037;-83
2023/01/17 08:37:25;;;;;;;2.25;1.05;;;1.20;99.90;;;;;;5029500;28;20049;-83
2023/01/17 08:39:51;;;;;;;3.35;0.40;;;1.20;99.90;;;;;;5043331;28;20094;-83
2023/01/17 08:42:17;;;;;;;2.95;0.40;;;1.20;99.90;;;;;;5042415;28;20033;-83
2023/01/17 08:44:42;;;;;;;3.00;0.40;;;1.20;99.90;;;;;;5044450;28;20395;-84
2023/01/17 08:47:09;;;;;;;3.25;0.60;;;2.40;99.90;;;;;;5047982;28;20043;-83
2023/01/17 08:49:34;;;;;;;5.65;0.63;;;1.40;99.90;;;;;;5037405;28;20040;-83
2023/01/17 08:52:00;;;;;;;6.47;0.45;;;1.30;99.90;;;;;;5044941;28;20044;-83
2023/01/17 08:54:27;;;;;;;4.43;0.60;;;1.50;99.90;;;;;;5047484;28;20094;-84
2023/01/17 08:56:54;;;;;;;8.60;0.75;;;1.30;99.90;;;;;;5044452;28;20483;-83
2023/01/17 08:59:20;;;;;;;2.65;0.60;;;1.30;99.90;;;;;;5047049;28;20114;-83
2023/01/17 09:01:46;;;;;;;6.78;0.70;;;1.30;99.90;;;;;;5042540;28;20048;-84
2023/01/17 09:04:12;;;;;;;3.05;0.82;;;1.30;99.90;;;;;;5025997;28;20037;-83
2023/01/17 09:06:41;;;;;;;3.80;1.20;;;1.40;99.90;;;;;;5047006;28;20074;-85
2023/01/17 09:09:08;;;;;;;2.65;0.63;;;1.40;99.90;;;;;;5020215;28;20057;-83
2023/01/17 09:11:34;;;;;;;4.57;0.95;;;1.40;99.90;;;;;;5040250;28;20071;-83
2023/01/17 09:14:00;;;;;;;9.35;1.67;;;1.40;99.90;;;;;;5048754;28;20094;-83
2023/01/17 09:16:27;;;;;;;6.57;1.00;;;1.50;99.90;;;;;;5042844;28;20051;-83
2023/01/17 09:18:57;;;;;;;4.90;0.70;;;1.50;99.90;;;;;;5042121;28;20060;-83
2023/01/17 09:21:23;;;;;;;4.82;1.23;;;1.50;99.90;;;;;;5039267;28;20046;-83
2023/01/17 09:23:49;;;;;;;10.13;2.50;;;1.50;99.90;;;;;;5045264;28;20094;-83
2023/01/17 09:26:29;;;;;;;3.92;1.20;;;1.50;99.90;;;;;;5039208;28;20484;-83
2023/01/17 09:28:54;;;;;;;4.38;0.60;;;1.60;99.90;;;;;;5047258;28;20376;-82
2023/01/17 09:31:25;;;;;;;7.95;1.75;;;1.60;99.90;;;;;;5045910;28;20043;-82
2023/01/17 09:33:52;;;;;;;5.05;0.70;;;1.60;99.90;;;;;;5038482;28;20055;-82
2023/01/17 09:36:19;;;;;;;4.40;0.80;;;1.70;99.90;;;;;;5045572;28;20106;-84
2023/01/17 09:38:45;;;;;;;7.03;1.15;;;1.70;99.90;;;;;;5036914;28;20090;-82
2023/01/17 09:41:28;;;;;;;2.58;0.70;;;1.70;99.90;;;;;;5029190;28;20048;-83
2023/01/17 09:44:03;;;;;;;10.23;0.93;;;1.70;99.90;;;;;;5040501;28;20488;-83
2023/01/17 09:46:32;;;;;;;5.22;0.60;;;1.80;99.90;;;;;;5044095;28;20033;-83
2023/01/17 09:49:02;;;;;;;5.15;1.35;;;1.80;99.90;;;;;;5047135;28;20055;-84
2023/01/17 09:51:27;;;;;;;6.63;2.45;;;1.80;99.90;;;;;;5047117;28;20044;-83
2023/01/17 09:53:54;;;;;;;6.38;0.43;;;1.90;99.90;;;;;;5040614;28;20109;-83
2023/01/17 09:56:34;;;;;;;5.38;0.82;;;1.90;99.90;;;;;;5041631;28;20048;-83
2023/01/17 09:59:07;;;;;;;4.15;0.93;;;2.00;99.90;;;;;;5046911;28;20120;-83
2023/01/17 10:01:39;;;;;;;8.52;1.80;;;2.00;99.90;;;;;;5047655;28;20116;-83
2023/01/17 10:04:42;;;;;;;20.70;8.52;;;2.10;99.90;;;;;;5039767;28;20777;-83
2023/01/17 10:07:13;;;;;;;10.85;3.38;;;2.20;99.90;;;;;;5040673;28;20045;-83
2023/01/17 10:09:45;;;;;;;9.02;3.65;;;2.40;99.90;;;;;;5043621;28;20051;-84
2023/01/17 10:12:17;;;;;;;2.72;0.70;;;2.60;99.90;;;;;;5047143;28;20116;-82
2023/01/17 10:15:07;;;;;;;3.58;0.88;;;2.80;99.90;;;;;;5046221;28;20080;-86
2023/01/17 10:17:38;;;;;;;7.90;1.38;;;3.00;99.90;;;;;;5040961;28;20041;-86
2023/01/17 10:20:14;;;;;;;5.30;0.80;;;3.10;99.90;;;;;;5044323;28;20045;-85
2023/01/17 10:23:02;;;;;;;18.05;5.78;;;3.10;99.90;;;;;;5041647;28;20041;-84
2023/01/17 10:25:50;;;;;;;13.38;4.20;;;3.10;99.90;;;;;;5037284;28;20400;-86
2023/01/17 10:28:21;;;;;;;6.22;1.65;;;3.10;99.90;;;;;;5040961;28;20041;-81
2023/01/17 10:30:53;;;;;;;15.90;7.50;;;3.10;99.90;;;;;;5039130;28;20174;-82
2023/01/17 10:33:34;;;;;;;14.27;4.30;;;3.00;99.90;;;;;;5041960;28;20221;-82
2023/01/17 10:36:06;;;;;;;7.28;1.58;;;3.00;99.90;;;;;;5043946;28;20052;-83
2023/01/17 10:38:35;;;;;;;14.02;5.93;;;2.90;99.90;;;;;;5045010;28;20124;-83
2023/01/17 10:41:15;;;;;;;4.78;1.35;;;2.90;99.90;;;;;;5042074;28;20093;-82
2023/01/17 10:44:05;;;;;;;5.00;0.85;;;2.90;99.90;;;;;;5049251;28;20487;-82
2023/01/17 10:46:59;;;;;;;7.35;1.95;;;2.90;99.90;;;;;;5034790;28;20059;-81
2023/01/17 10:49:27;;;;;;;10.48;3.55;;;3.00;99.90;;;;;;4999525;28;20205;-83
2023/01/17 10:52:26;;;;;;;5.43;1.00;;;3.10;99.90;;;;;;4982838;28;20200;-82
2023/01/17 10:54:55;;;;;;;11.05;1.83;;;3.20;99.90;;;;;;4983849;28;20045;-81
2023/01/17 10:57:26;;;;;;;3.33;1.17;;;3.30;99.90;;;;;;4999734;28;20529;-82
2023/01/17 10:59:56;;;;;;;5.57;1.80;;;3.30;99.90;;;;;;4988712;28;20121;-86
2023/01/17 11:02:35;;;;;;;10.68;3.60;;;3.40;99.90;;;;;;5006151;28;20610;-79
2023/01/17 11:05:09;;;;;;;7.85;3.47;;;3.50;99.90;;;;;;4987963;28;20064;-81
2023/01/17 11:07:36;;;;;;;7.90;1.42;;;3.50;99.90;;;;;;4968570;28;20089;-82
2023/01/17 11:10:03;;;;;;;7.88;2.80;;;3.60;99.90;;;;;;4989322;28;20049;-81
2023/01/17 11:12:38;;;;;;;8.32;1.98;;;3.70;99.90;;;;;;5006998;28;20041;-82
2023/01/17 11:15:09;;;;;;;11.13;1.55;;;3.70;99.90;;;;;;5006145;28;20034;-82
2023/01/17 11:17:47;;;;;;;3.25;0.60;;;3.80;99.90;;;;;;5005359;28;20049;-81
2023/01/17 11:20:18;;;;;;;6.80;0.93;;;3.80;99.90;;;;;;5005555;28;20814;-81
2023/01/17 11:23:10;;;;;;;8.38;1.25;;;4.20;99.90;;;;;;5009895;28;20046;-82
2023/01/17 11:25:36;;;;;;;3.97;0.70;;;3.90;99.90;;;;;;5006617;28;20048;-82
2023/01/17 11:28:07;;;;;;;2.80;1.10;;;4.00;99.90;;;;;;5049445;28;20468;-82
2023/01/17 11:30:33;;;;;;;3.03;0.90;;;4.10;99.90;;;;;;5045663;28;20563;-82
2023/01/17 11:33:02;;;;;;;5.65;0.85;;;4.10;99.90;;;;;;5046166;28;20119;-82
2023/01/17 11:35:31;;;;;;;3.45;0.63;;;4.20;99.90;;;;;;5045243;28;20070;-82
2023/01/17 11:37:58;;;;;;;5.40;0.73;;;4.30;99.90;;;;;;5048919;28;20040;-82
2023/01/17 11:40:29;;;;;;;9.40;1.52;;;4.40;99.90;;;;;;5045987;28;20162;-82
2023/01/17 11:43:01;;;;;;;8.82;1.67;;;4.50;99.90;;;;;;5047305;28;20049;-83
2023/01/17 11:45:30;;;;;;;4.80;1.33;;;4.60;99.90;;;;;;5044063;28;20099;-82
2023/01/17 11:48:07;;;;;;;4.00;0.70;;;4.70;99.90;;;;;;5046988;28;20045;-82
2023/01/17 11:50:43;;;;;;;4.28;2.30;;;4.80;99.90;;;;;;5045046;28;20048;-82
2023/01/17 11:53:21;;;;;;;3.10;0.32;;;4.80;99.90;;;;;;5063428;28;20037;-83
2023/01/17 11:56:07;;;;;;;4.35;0.55;;;4.90;99.90;;;;;;5059959;28;20116;-83
2023/01/17 11:58:36;;;;;;;3.80;0.65;;;4.90;99.90;;;;;;5047016;28;20045;-82
2023/01/17 12:01:07;;;;;;;3.45;0.52;;;5.00;99.90;;;;;;5041892;28;20021;-83
2023/01/17 12:03:33;;;;;;;2.95;0.70;;;5.10;99.90;;;;;;5042570;28;20509;-82
2023/01/17 12:06:12;;;;;;;6.72;2.17;;;5.10;99.90;;;;;;5045409;28;20045;-84
2023/01/17 12:08:50;;;;;;;6.78;1.90;;;5.20;99.90;;;;;;5046118;28;20070;-84
2023/01/17 12:13:59;;;;;;;6.22;1.05;;;5.20;99.90;;;;;;5048316;28;20449;-83
2023/01/17 12:14:58;;;;;;;3.95;1.33;;;5.20;99.90;;;;;;5042928;28;20049;-82
2023/01/17 12:18:07;;;;;;;5.20;1.35;;;5.30;99.90;;;;;;5046779;28;20044;-82
2023/01/17 12:20:57;;;;;;;5.40;0.80;;;5.40;99.90;;;;;;5046278;28;20141;-82
2023/01/17 12:23:42;;;;;;;4.88;0.75;;;5.40;99.90;;;;;;5045329;28;20056;-82
2023/01/17 12:26:35;;;;;;;1.92;0.50;;;5.40;99.90;;;;;;5040673;28;20136;-83
2023/01/17 12:29:25;;;;;;;3.22;0.50;;;5.40;99.90;;;;;;5044111;28;20039;-82
2023/01/17 12:32:18;;;;;;;2.97;0.43;;;5.50;99.90;;;;;;5038984;28;20060;-82
2023/01/17 12:35:03;;;;;;;4.07;0.50;;;5.50;99.90;;;;;;5048324;28;20094;-82
2023/01/17 12:37:42;;;;;;;3.38;0.70;;;5.50;99.90;;;;;;5048349;28;20060;-82
2023/01/17 12:40:29;;;;;;;5.20;0.77;;;5.50;99.90;;;;;;5047136;28;20154;-83
2023/01/17 12:43:01;;;;;;;5.30;1.35;;;5.60;99.90;;;;;;5046103;28;20103;-83
2023/01/17 12:45:32;;;;;;;5.78;1.20;;;5.60;99.90;;;;;;5046204;28;20148;-82
2023/01/17 12:48:04;;;;;;;3.60;0.60;;;5.70;99.90;;;;;;5045448;28;20400;-81
2023/01/17 12:50:39;;;;;;;3.65;1.33;;;5.70;99.90;;;;;;5040818;28;20041;-82
2023/01/17 12:53:26;;;;;;;;;;;5.70;99.90;;;;;;5045682;28;20025;-81
2023/01/17 12:56:21;;;;;;;3.80;0.60;;;5.80;99.90;;;;;;5046068;28;20051;-82
2023/01/17 12:58:49;;;;;;;;;;;6.00;99.90;;;;;;5041864;28;20094;-82
2023/01/17 13:01:28;;;;;;;5.32;0.60;;;6.00;99.90;;;;;;5042226;28;19920;-83
2023/01/17 13:04:11;;;;;;;8.45;1.05;;;6.00;99.90;;;;;;5045305;28;20036;-82
2023/01/17 13:07:21;;;;;;;8.93;1.83;;;6.00;99.90;;;;;;5058109;28;20051;-82
2023/01/17 13:10:30;;;;;;;4.07;1.23;;;6.20;99.90;;;;;;4969650;28;20088;-82
2023/01/17 13:12:58;;;;;;;4.32;1.23;;;6.20;99.90;;;;;;4977110;28;20228;-82
2023/01/17 13:15:28;;;;;;;4.85;0.55;;;6.10;99.90;;;;;;4963586;28;20611;-82
2023/01/17 13:18:09;;;;;;;5.72;0.98;;;6.10;99.90;;;;;;4983827;28;20074;-81
2023/01/17 13:21:05;;;;;;;4.88;1.00;;;6.10;99.90;;;;;;4967508;28;20174;-81
2023/01/17 13:24:00;;;;;;;4.15;0.90;;;6.00;99.90;;;;;;4981472;28;20046;-84
2023/01/17 13:26:54;;;;;;;1.65;0.68;;;5.90;99.90;;;;;;4984100;28;20046;-82
2023/01/17 13:29:20;;;;;;;8.57;2.80;;;5.80;99.90;;;;;;4968661;28;20046;-83
2023/01/17 13:32:22;;;;;;;3.30;1.55;;;6.10;99.90;;;;;;4967007;28;20062;-82
2023/01/17 13:35:13;;;;;;;2.05;0.70;;;5.80;99.90;;;;;;4970313;28;20485;-82
2023/01/17 13:38:00;;;;;;;2.35;0.60;;;5.80;99.90;;;;;;4985383;28;20117;-82
2023/01/17 13:40:40;;;;;;;4.13;0.80;;;5.80;99.90;;;;;;4970624;28;20054;-82
2023/01/17 13:43:24;;;;;;;4.85;0.80;;;5.80;99.90;;;;;;4968803;28;20057;-82
2023/01/17 13:46:02;;;;;;;3.25;0.60;;;5.70;99.90;;;;;;5024315;28;20075;-81
2023/01/17 13:48:37;;;;;;;12.43;5.07;;;5.70;99.90;;;;;;5042407;28;20123;-82
2023/01/17 13:51:10;;;;;;;2.65;0.60;;;5.40;99.90;;;;;;5046205;28;20047;-84
2023/01/17 13:53:38;;;;;;;5.65;0.85;;;5.20;99.90;;;;;;5044057;28;20041;-83
2023/01/17 13:56:24;;;;;;;8.13;2.72;;;5.10;99.90;;;;;;5047311;28;20070;-84
2023/01/17 13:59:00;;;;;;;10.20;3.95;;;5.00;99.90;;;;;;5039354;28;20034;-84
2023/01/17 14:01:38;;;;;;;5.70;1.05;;;4.80;99.90;;;;;;5039202;28;20049;-84
2023/01/17 14:04:08;;;;;;;3.70;1.33;;;4.70;99.90;;;;;;5042998;28;20065;-84
2023/01/17 14:06:40;;;;;;;8.25;2.38;;;4.90;99.90;;;;;;5043577;28;20040;-83
2023/01/17 14:09:11;;;;;;;4.38;0.90;;;4.60;99.90;;;;;;5043686;28;20076;-84
2023/01/17 14:12:05;;;;;;;4.32;0.80;;;5.30;99.90;;;;;;5044415;28;20047;-83
2023/01/17 14:14:41;;;;;;;5.53;1.80;;;4.40;99.90;;;;;;5044744;28;20076;-80
2023/01/17 14:17:21;;;;;;;2.80;1.08;;;4.50;99.90;;;;;;5040388;28;20053;-82
2023/01/17 14:19:49;;;;;;;4.28;1.00;;;4.40;99.90;;;;;;5040609;28;20117;-82
2023/01/17 14:22:17;;;;;;;2.53;0.55;;;4.40;99.90;;;;;;5041605;28;20099;-84
2023/01/17 14:25:19;;;;;;;4.97;1.02;;;4.40;99.90;;;;;;5046213;28;20076;-82
2023/01/17 14:27:48;;;;;;;4.30;0.70;;;4.40;99.90;;;;;;5045754;28;20404;-82
2023/01/17 14:30:17;;;;;;;6.03;1.48;;;4.30;99.90;;;;;;5044063;28;20488;-84
2023/01/17 14:32:59;;;;;;;3.88;0.90;;;4.30;99.90;;;;;;5035669;28;20567;-82
2023/01/17 14:35:28;;;;;;;4.38;1.40;;;4.20;99.90;;;;;;5039364;28;20539;-82
2023/01/17 14:37:56;;;;;;;4.53;1.33;;;4.20;99.90;;;;;;5046468;28;20037;-83
2023/01/17 14:40:29;;;;;;;6.85;1.10;;;4.20;99.90;;;;;;5039380;28;20029;-82
2023/01/17 14:43:13;;;;;;;7.50;1.05;;;4.10;99.90;;;;;;5037902;28;20037;-81